Terminal Aerodrome Forecast
Issued by NWS Cleveland, OH

Home | Current Version | Previous Version | Text Only | Print | Product List | Glossary On
Versions: 1 2 3 4 5 6 7 8 9 10 11 12 13 14 15 16 17 18 19 20 21 22 23 24 25 26 27 28 29 30 31 32 33 34
000
FTUS41 KCLE 201700
TAFCLE
TAF
KCLE 201736Z 2018/2124 20011KT P6SM VCSH SCT020 BKN045
      TEMPO 2018/2022 BKN020
     FM202200 25006KT P6SM VCSH BKN045
     FM210100 23005KT P6SM SCT045 BKN120
     FM210900 21003KT 6SM BR VCSH SCT025 BKN045
      TEMPO 2109/2113 4SM BR
     FM211400 24006KT P6SM VCSH BKN035
      TEMPO 2114/2118 5SM TSRA BR BKN025CB
     FM211800 25011KT P6SM VCTS BKN035CB=

USA.gov is the U.S. government's official web portal to all federal, state and local government web resources and services.